Time;durP1;ratioP1;P1;durP2;ratioP2;P2;SDS_P1;SDS_P2;PMS_P1;PMS_P2;Temp;Humidity;BMP_temperature;BMP_pressure;BME280_temperature;BME280_humidity;BME280_pressure;Samples;Min_cycle;Max_cycle;Signal;HPM_P1;HPM_P2
2022/09/04 00:02:24;;;;;;;6.90;2.40;;;16.40;86.60;;;;;;5019793;28;20053;-96
2022/09/04 00:05:01;;;;;;;;;;;16.40;86.70;;;;;;5056063;28;20396;-96
2022/09/04 00:07:34;;;;;;;10.88;2.47;;;16.30;87.60;;;;;;5037120;28;20007;-96
2022/09/04 00:10:21;;;;;;;8.07;2.70;;;16.30;86.50;;;;;;5037145;28;20047;-96
2022/09/04 00:12:56;;;;;;;7.68;3.03;;;16.30;87.70;;;;;;5055256;28;20389;-96
2022/09/04 00:15:30;;;;;;;6.97;2.53;;;16.20;86.90;;;;;;5037076;28;20102;-96
2022/09/04 00:18:21;;;;;;;8.80;2.58;;;16.20;87.00;;;;;;5037658;28;20049;-96
2022/09/04 00:20:55;;;;;;;8.50;2.50;;;16.10;87.20;;;;;;5051616;28;20098;-96
2022/09/04 00:23:25;;;;;;;6.50;2.40;;;16.10;87.40;;;;;;5055019;28;20456;-96
2022/09/04 00:26:06;;;;;;;7.28;2.83;;;16.70;87.70;;;;;;5037311;28;20072;-96
2022/09/04 00:28:45;;;;;;;6.78;2.45;;;16.70;88.20;;;;;;5054908;28;20045;-96
2022/09/04 00:31:24;;;;;;;8.13;3.03;;;16.00;88.10;;;;;;5036660;28;20063;-96
2022/09/04 00:34:17;;;;;;;8.88;2.60;;;16.00;88.30;;;;;;5037959;28;20389;-96
2022/09/04 00:36:47;;;;;;;8.13;2.83;;;15.90;88.30;;;;;;5037876;28;20056;-96
2022/09/04 00:39:22;;;;;;;9.20;2.67;;;15.90;88.40;;;;;;5037556;28;20060;-95
2022/09/04 00:42:07;;;;;;;7.10;2.60;;;15.90;88.70;;;;;;5055279;28;20045;-96
2022/09/04 00:45:03;;;;;;;8.95;2.63;;;15.80;88.80;;;;;;5036300;28;20492;-96
2022/09/04 00:47:40;;;;;;;7.22;2.47;;;15.80;89.70;;;;;;5037400;28;20496;-96
2022/09/04 00:50:54;;;;;;;9.15;2.70;;;15.80;89.10;;;;;;5054255;28;20066;-96
2022/09/04 00:53:51;;;;;;;7.40;2.38;;;15.70;90.00;;;;;;5036097;28;20095;-96
2022/09/04 00:57:00;;;;;;;8.88;2.80;;;15.70;89.40;;;;;;5000682;28;20055;-96
2022/09/04 00:59:54;;;;;;;7.57;2.80;;;15.70;90.00;;;;;;5041943;28;20550;-96
2022/09/04 01:02:37;;;;;;;8.57;2.80;;;15.60;90.00;;;;;;5037671;28;20044;-96
2022/09/04 01:05:37;;;;;;;8.45;2.80;;;15.60;90.20;;;;;;5058432;28;20079;-96
2022/09/04 01:08:14;;;;;;;7.47;2.90;;;15.50;90.30;;;;;;5049124;28;20029;-95
2022/09/04 01:11:21;;;;;;;11.45;3.00;;;15.50;90.20;;;;;;5052627;28;20132;-96
2022/09/04 01:13:49;;;;;;;9.35;2.90;;;15.40;90.50;;;;;;5054070;28;20144;-96
2022/09/04 01:16:40;;;;;;;7.65;3.03;;;15.60;90.50;;;;;;5039153;28;20040;-96
2022/09/04 01:19:30;;;;;;;7.60;2.70;;;15.40;90.80;;;;;;5076989;28;20088;-95
2022/09/04 01:22:06;;;;;;;8.23;2.70;;;15.40;90.50;;;;;;5047010;28;20407;-96
2022/09/04 01:24:46;;;;;;;7.32;2.63;;;15.40;90.80;;;;;;5036791;28;20167;-96
2022/09/04 01:27:46;;;;;;;7.53;2.72;;;15.40;91.00;;;;;;5036961;28;20519;-96
2022/09/04 01:30:17;;;;;;;10.55;2.85;;;15.30;91.30;;;;;;5036669;28;20152;-96
2022/09/04 01:33:18;;;;;;;9.52;2.83;;;15.20;91.10;;;;;;5054493;28;20139;-96
2022/09/04 01:36:04;;;;;;;7.68;2.70;;;15.20;91.50;;;;;;5036579;28;20081;-96
2022/09/04 01:38:49;;;;;;;7.97;2.85;;;15.80;91.50;;;;;;5034534;28;20053;-96
2022/09/04 01:41:42;;;;;;;9.02;3.05;;;15.20;91.60;;;;;;5021876;28;20423;-96
2022/09/04 01:44:09;;;;;;;9.27;2.92;;;15.10;91.80;;;;;;5054510;28;20051;-96
2022/09/04 01:46:35;;;;;;;8.70;2.80;;;15.40;91.90;;;;;;5055741;28;20029;-96
2022/09/04 01:49:29;;;;;;;8.70;3.00;;;15.00;91.80;;;;;;5076878;28;20052;-95
2022/09/04 01:52:20;;;;;;;8.07;3.13;;;15.00;92.80;;;;;;5004850;28;20471;-96
2022/09/04 01:54:57;;;;;;;9.23;3.10;;;15.00;92.70;;;;;;5058010;28;20538;-96
2022/09/04 01:57:32;;;;;;;8.65;2.85;;;15.70;92.60;;;;;;5036744;28;20068;-96
2022/09/04 02:00:11;;;;;;;12.48;3.17;;;14.90;92.60;;;;;;5036776;28;20060;-96
2022/09/04 02:03:01;;;;;;;8.05;3.08;;;14.80;93.10;;;;;;4997565;28;20106;-96
2022/09/04 02:05:48;;;;;;;8.98;2.90;;;14.80;93.30;;;;;;5022207;28;20026;-95
2022/09/04 02:08:46;;;;;;;9.95;3.03;;;14.70;92.90;;;;;;5024043;28;20030;-96
2022/09/04 02:11:17;;;;;;;7.95;2.88;;;14.70;93.40;;;;;;5019176;28;20061;-96
2022/09/04 02:14:05;;;;;;;8.45;2.90;;;14.60;93.30;;;;;;5011708;28;20099;-96
2022/09/04 02:16:45;;;;;;;8.88;2.70;;;14.60;93.40;;;;;;5033054;28;20050;-96
2022/09/04 02:19:20;;;;;;;8.35;2.97;;;14.50;93.60;;;;;;5020927;28;20109;-96
2022/09/04 02:21:54;;;;;;;8.52;3.10;;;14.60;93.90;;;;;;5002463;28;20046;-96
2022/09/04 02:24:29;;;;;;;8.40;2.92;;;14.50;94.00;;;;;;5023920;28;20134;-96
2022/09/04 02:27:18;;;;;;;8.88;3.10;;;14.50;94.20;;;;;;5019527;28;20164;-96
2022/09/04 02:29:55;;;;;;;7.82;3.00;;;14.50;94.60;;;;;;5000205;28;20046;-96
2022/09/04 02:32:44;;;;;;;9.82;3.20;;;14.40;94.50;;;;;;5001020;28;20050;-96
2022/09/04 02:35:41;;;;;;;8.75;3.08;;;14.30;94.80;;;;;;5000722;28;20050;-96
2022/09/04 02:38:29;;;;;;;8.93;3.15;;;14.30;95.20;;;;;;5000726;28;20084;-96
2022/09/04 02:41:05;;;;;;;8.10;3.20;;;14.30;95.60;;;;;;5018415;28;20129;-96
2022/09/04 02:43:31;;;;;;;9.30;2.90;;;14.30;95.40;;;;;;5000462;28;20136;-96
2022/09/04 02:46:20;;;;;;;7.63;2.90;;;14.90;95.60;;;;;;5000218;28;20042;-96
2022/09/04 02:49:12;;;;;;;8.23;3.17;;;14.70;96.50;;;;;;5019496;28;20121;-96
2022/09/04 02:52:22;;;;;;;9.45;3.30;;;14.20;96.10;;;;;;4999805;28;20085;-96
2022/09/04 02:55:19;;;;;;;8.73;3.20;;;14.10;96.30;;;;;;4978907;28;20678;-96
2022/09/04 02:58:03;;;;;;;9.25;3.28;;;14.10;96.30;;;;;;5017627;28;20160;-96
2022/09/04 03:00:55;;;;;;;;;;;14.10;96.70;;;;;;5003650;28;20042;-96
2022/09/04 03:03:30;;;;;;;10.90;3.45;;;14.00;97.00;;;;;;5004432;28;19929;-96
2022/09/04 03:06:04;;;;;;;8.07;3.13;;;14.00;96.70;;;;;;5028093;28;20045;-96
2022/09/04 03:08:40;;;;;;;8.00;3.30;;;14.00;97.10;;;;;;5000971;28;20486;-96
2022/09/04 03:11:12;;;;;;;8.98;3.40;;;14.00;97.50;;;;;;5023537;28;20050;-96
2022/09/04 03:13:44;;;;;;;8.57;3.22;;;13.90;97.40;;;;;;5037796;28;20069;-96
2022/09/04 03:19:13;;;;;;;8.77;3.63;;;13.90;97.90;;;;;;5097912;22;20057;-95
2022/09/04 03:22:06;;;;;;;9.10;3.20;;;13.90;98.50;;;;;;5060057;28;20046;-96
2022/09/04 03:24:55;;;;;;;9.20;3.63;;;13.90;98.30;;;;;;5076510;28;20040;-96
2022/09/04 03:27:21;;;;;;;9.57;3.90;;;13.80;99.10;;;;;;5020476;28;20263;-96
2022/09/04 03:30:07;;;;;;;8.52;3.65;;;14.10;98.60;;;;;;5059700;28;20541;-96
2022/09/04 03:32:39;;;;;;;9.20;3.78;;;13.80;99.10;;;;;;5058970;28;20045;-96
2022/09/04 03:35:46;;;;;;;10.38;3.92;;;13.80;99.80;;;;;;5069089;28;20067;-96
2022/09/04 03:38:37;;;;;;;;;;;13.80;99.40;;;;;;5065966;22;20048;-96
2022/09/04 03:41:26;;;;;;;13.10;3.85;;;13.70;99.80;;;;;;5041852;28;19927;-96
2022/09/04 03:44:40;;;;;;;10.23;4.15;;;13.60;98.90;;;;;;5056944;28;20044;-96
2022/09/04 03:47:26;;;;;;;10.03;4.00;;;13.60;99.60;;;;;;5039155;28;20099;-96
2022/09/04 03:50:42;;;;;;;9.02;4.10;;;13.60;99.90;;;;;;5040894;28;20052;-96
2022/09/04 03:53:36;;;;;;;8.93;3.80;;;13.50;99.90;;;;;;5061740;28;20048;-96
2022/09/04 03:56:36;;;;;;;9.27;3.92;;;13.50;99.90;;;;;;5044227;28;20370;-96
2022/09/04 03:59:14;;;;;;;8.60;3.78;;;13.40;99.90;;;;;;5042457;28;20381;-96
2022/09/04 04:01:56;;;;;;;9.23;3.90;;;13.40;99.90;;;;;;5036242;28;20041;-96
2022/09/04 04:05:00;;;;;;;10.35;4.47;;;13.90;99.90;;;;;;5054414;28;20079;-96
2022/09/04 04:08:01;;;;;;;9.40;3.78;;;13.40;99.90;;;;;;5056669;28;20125;-96
2022/09/04 04:10:55;;;;;;;9.43;4.15;;;13.50;99.90;;;;;;5038482;28;20049;-96
2022/09/04 04:13:38;;;;;;;11.13;3.95;;;13.30;99.90;;;;;;5038878;28;20049;-96
2022/09/04 04:16:44;;;;;;;9.90;3.90;;;13.40;99.90;;;;;;5038986;28;20132;-96
2022/09/04 04:23:35;;;;;;;10.82;3.92;;;13.40;99.90;;;;;;4931263;28;20085;-96
2022/09/04 04:26:51;;;;;;;10.43;3.80;;;13.40;99.90;;;;;;5036435;28;20531;-96
2022/09/04 04:30:13;;;;;;;10.05;3.90;;;13.30;99.90;;;;;;5056214;28;20095;-96
2022/09/04 04:33:11;;;;;;;11.23;3.67;;;13.30;99.90;;;;;;4987576;28;20501;-96
2022/09/04 04:36:08;;;;;;;12.75;4.55;;;13.30;99.90;;;;;;5031632;28;20053;-96
2022/09/04 04:39:10;;;;;;;8.25;3.65;;;13.00;99.90;;;;;;5055046;28;20049;-96
2022/09/04 04:48:59;;;;;;;10.40;4.05;;;13.20;99.90;;;;;;5089298;22;20093;-96
2022/09/04 04:52:03;;;;;;;9.98;3.75;;;13.20;99.90;;;;;;5086411;28;20563;-96
2022/09/04 04:55:15;;;;;;;9.82;3.92;;;13.10;99.90;;;;;;4981506;28;20557;-96
2022/09/04 04:58:18;;;;;;;8.68;3.75;;;13.20;99.90;;;;;;5017035;28;20031;-96
2022/09/04 05:01:10;;;;;;;8.90;3.80;;;13.10;99.90;;;;;;5097838;28;20129;-96
2022/09/04 05:04:10;;;;;;;8.70;3.70;;;13.10;99.90;;;;;;5096201;28;20077;-96
2022/09/04 05:06:58;;;;;;;10.35;3.60;;;13.20;99.90;;;;;;5116298;28;20036;-96
2022/09/04 05:09:40;;;;;;;9.45;3.25;;;13.10;99.90;;;;;;5104155;28;20040;-96
2022/09/04 05:12:26;;;;;;;9.23;3.50;;;13.30;99.90;;;;;;5079226;28;20491;-96
2022/09/04 05:15:21;;;;;;;10.35;4.10;;;14.30;99.90;;;;;;5079371;28;20086;-96
2022/09/04 05:18:00;;;;;;;10.90;3.67;;;13.20;99.90;;;;;;5073361;28;20495;-96
2022/09/04 05:20:50;;;;;;;9.10;3.63;;;13.20;99.90;;;;;;5081634;28;20056;-96
2022/09/04 05:23:49;;;;;;;;;;;;;;;;;;;;;
2022/09/04 05:26:26;;;;;;;9.98;4.10;;;13.30;99.90;;;;;;5084208;28;20118;-96
2022/09/04 05:29:11;;;;;;;;;;;13.70;99.90;;;;;;5085621;28;20036;-96
2022/09/04 05:31:51;;;;;;;9.20;4.00;;;13.40;99.90;;;;;;5089758;28;20019;-96
2022/09/04 05:35:07;;;;;;;12.63;4.10;;;13.30;99.90;;;;;;5104216;28;20102;-96
2022/09/04 05:38:13;;;;;;;9.30;3.55;;;13.40;99.90;;;;;;5088045;28;20135;-96
2022/09/04 05:44:08;;;;;;;9.05;3.95;;;13.50;99.90;;;;;;5093661;28;20056;-96
2022/09/04 05:46:55;;;;;;;8.25;3.80;;;13.50;99.90;;;;;;5085406;28;20051;-91
2022/09/04 05:49:46;;;;;;;9.95;3.50;;;13.60;99.90;;;;;;5098918;28;20062;-88
2022/09/04 05:52:27;;;;;;;9.23;3.80;;;13.70;99.90;;;;;;5101475;28;20044;-88
2022/09/04 05:55:03;;;;;;;12.43;3.78;;;13.70;99.90;;;;;;5100954;28;20159;-88
2022/09/04 05:58:06;;;;;;;8.45;3.80;;;13.80;99.90;;;;;;5101283;28;20051;-86
2022/09/04 06:00:57;;;;;;;12.90;4.10;;;13.80;99.90;;;;;;5117780;28;20543;-84
2022/09/04 06:03:55;;;;;;;10.45;3.80;;;13.90;99.90;;;;;;5117856;28;20122;-84
2022/09/04 06:06:46;;;;;;;10.43;3.80;;;14.00;99.90;;;;;;5100286;28;20043;-84
2022/09/04 06:09:31;;;;;;;8.40;3.75;;;14.10;99.90;;;;;;5117791;28;20091;-85
2022/09/04 06:12:23;;;;;;;9.52;3.60;;;14.10;99.90;;;;;;5101712;28;20048;-89
2022/09/04 06:15:05;;;;;;;9.80;3.67;;;14.20;99.90;;;;;;5118740;28;20057;-86
2022/09/04 06:17:30;;;;;;;9.85;3.97;;;14.20;99.90;;;;;;5117976;28;20093;-86
2022/09/04 06:20:30;;;;;;;9.38;3.83;;;14.30;99.90;;;;;;5078003;28;20438;-91
2022/09/04 06:23:04;;;;;;;12.77;3.97;;;14.40;99.90;;;;;;5058633;28;20041;-85
2022/09/04 06:25:44;;;;;;;;;;;14.40;99.90;;;;;;5071125;28;20055;-85
2022/09/04 06:28:41;;;;;;;10.38;4.10;;;14.50;99.90;;;;;;5079750;28;19919;-85
2022/09/04 06:31:39;;;;;;;8.27;3.72;;;14.50;99.90;;;;;;5080698;28;20052;-90
2022/09/04 06:34:34;;;;;;;9.18;3.80;;;14.60;99.90;;;;;;5097919;28;20048;-91
2022/09/04 06:37:33;;;;;;;9.73;3.78;;;14.70;99.90;;;;;;5072481;28;20483;-86
2022/09/04 06:40:09;;;;;;;8.85;3.92;;;14.70;99.90;;;;;;5111996;28;20035;-85
2022/09/04 06:43:02;;;;;;;9.18;3.70;;;14.80;99.90;;;;;;5100689;28;20048;-86
2022/09/04 06:45:53;;;;;;;10.00;3.55;;;14.90;99.90;;;;;;5122571;28;20058;-86
2022/09/04 06:48:24;;;;;;;8.60;3.63;;;14.90;99.90;;;;;;5126908;28;20051;-87
2022/09/04 06:51:15;;;;;;;10.02;3.97;;;15.00;99.90;;;;;;5096973;28;20088;-85
2022/09/04 06:54:15;;;;;;;8.93;3.55;;;15.00;99.90;;;;;;5058990;28;20106;-85
2022/09/04 06:57:00;;;;;;;9.15;3.53;;;15.10;99.90;;;;;;5077030;28;20563;-85
2022/09/04 06:59:36;;;;;;;8.95;3.58;;;15.20;99.90;;;;;;5061764;28;20131;-85
2022/09/04 07:02:37;;;;;;;9.57;3.85;;;15.30;99.90;;;;;;5059346;28;20484;-90
2022/09/04 07:05:20;;;;;;;10.38;3.72;;;15.40;99.90;;;;;;5059752;28;20055;-90
2022/09/04 07:08:19;;;;;;;8.63;3.70;;;15.50;99.90;;;;;;5071312;28;20041;-88
2022/09/04 07:11:06;;;;;;;9.60;3.63;;;15.70;99.90;;;;;;5061783;28;20115;-88
2022/09/04 07:13:39;;;;;;;9.85;3.55;;;16.40;99.90;;;;;;5066043;28;20051;-89
2022/09/04 07:16:08;;;;;;;9.60;3.72;;;15.90;99.90;;;;;;5065217;28;20102;-89
2022/09/04 07:18:54;;;;;;;11.70;3.75;;;16.10;99.90;;;;;;5082963;28;20056;-88
2022/09/04 07:21:41;;;;;;;8.82;3.55;;;16.10;99.90;;;;;;5085510;28;20123;-88
2022/09/04 07:24:55;;;;;;;10.07;3.53;;;16.30;99.90;;;;;;5101858;28;20044;-88
2022/09/04 07:27:40;;;;;;;7.57;3.33;;;16.40;99.90;;;;;;5063125;28;20088;-89
2022/09/04 07:30:14;;;;;;;9.13;3.53;;;16.50;99.90;;;;;;5079722;28;20782;-88
2022/09/04 07:33:06;;;;;;;8.40;3.65;;;16.60;99.90;;;;;;5088698;28;20127;-88
2022/09/04 07:35:40;;;;;;;8.73;3.47;;;16.70;99.90;;;;;;5078824;28;20049;-87
2022/09/04 07:38:15;;;;;;;7.95;3.40;;;16.80;99.90;;;;;;5096698;28;20154;-87
2022/09/04 07:40:50;;;;;;;7.70;3.05;;;16.90;99.90;;;;;;5096912;28;20138;-89
2022/09/04 07:43:41;;;;;;;9.73;3.50;;;17.00;99.90;;;;;;5091763;28;20123;-89
2022/09/04 07:46:29;;;;;;;10.15;3.60;;;17.20;99.90;;;;;;5073557;28;20056;-87
2022/09/04 07:49:08;;;;;;;8.20;3.20;;;17.30;99.90;;;;;;5084261;28;20506;-87
2022/09/04 07:51:57;;;;;;;7.93;3.20;;;18.10;99.90;;;;;;5073225;28;20048;-87
2022/09/04 07:54:47;;;;;;;9.85;3.45;;;17.60;99.90;;;;;;5043285;28;20044;-88
2022/09/04 07:57:43;;;;;;;8.55;3.45;;;17.70;99.90;;;;;;5077636;28;20048;-88
2022/09/04 08:00:22;;;;;;;7.95;3.58;;;17.90;99.90;;;;;;5075820;28;20514;-88
2022/09/04 08:03:10;;;;;;;8.40;3.38;;;18.00;99.90;;;;;;5093884;28;20036;-88
2022/09/04 08:05:46;;;;;;;8.23;3.25;;;18.20;99.90;;;;;;5075739;28;20113;-86
2022/09/04 08:08:20;;;;;;;8.15;3.22;;;18.50;99.90;;;;;;5075949;28;20047;-89
2022/09/04 08:11:12;;;;;;;8.52;3.13;;;18.40;99.90;;;;;;5094368;28;20044;-81
2022/09/04 08:14:01;;;;;;;9.43;3.80;;;18.50;99.90;;;;;;5075784;28;20051;-91
2022/09/04 08:16:33;;;;;;;8.77;3.30;;;18.60;99.90;;;;;;5077752;28;20036;-90
2022/09/04 08:19:02;;;;;;;8.98;3.00;;;19.30;99.90;;;;;;5076439;28;20044;-89
2022/09/04 08:21:29;;;;;;;9.38;3.55;;;18.80;99.90;;;;;;5074975;28;20036;-88
2022/09/04 08:24:28;;;;;;;7.40;3.10;;;18.90;99.90;;;;;;5073745;28;20699;-87
2022/09/04 08:27:02;;;;;;;7.68;3.28;;;19.00;99.90;;;;;;5080094;28;20051;-88
2022/09/04 08:30:03;;;;;;;7.55;2.97;;;19.10;99.70;;;;;;5074166;28;20142;-88
2022/09/04 08:32:52;;;;;;;9.95;3.10;;;19.20;99.40;;;;;;5050839;28;20051;-91
2022/09/04 08:35:43;;;;;;;8.60;3.00;;;19.40;99.70;;;;;;5054799;28;20040;-89
2022/09/04 08:38:32;;;;;;;8.75;2.97;;;19.50;99.40;;;;;;5073662;28;20048;-91
2022/09/04 08:41:18;;;;;;;8.68;3.10;;;19.60;99.60;;;;;;5056246;28;20040;-86
2022/09/04 08:44:14;;;;;;;10.20;3.10;;;19.70;99.40;;;;;;5058015;28;20040;-85
2022/09/04 08:47:07;;;;;;;7.80;3.13;;;19.90;98.90;;;;;;5077003;28;20068;-86
2022/09/04 08:50:02;;;;;;;10.00;3.17;;;20.00;98.60;;;;;;5060926;28;20060;-86
2022/09/04 08:52:56;;;;;;;8.30;2.97;;;20.10;98.80;;;;;;5035162;28;20044;-86
2022/09/04 08:55:50;;;;;;;8.48;3.00;;;20.20;98.80;;;;;;5066450;28;20045;-86
2022/09/04 08:58:25;;;;;;;7.97;2.78;;;20.40;98.50;;;;;;5058963;28;20052;-86
2022/09/04 09:00:56;;;;;;;9.15;3.10;;;20.80;98.20;;;;;;5072560;28;20079;-86
2022/09/04 09:04:06;;;;;;;8.55;3.15;;;20.70;98.20;;;;;;5053843;28;20052;-87
2022/09/04 09:07:24;;;;;;;8.20;3.25;;;20.70;97.90;;;;;;5055292;28;20054;-90
2022/09/04 09:09:50;;;;;;;9.10;2.85;;;20.80;97.60;;;;;;4955921;28;20070;-86
2022/09/04 09:12:43;;;;;;;8.45;3.10;;;21.00;98.00;;;;;;5106212;22;20400;-86
2022/09/04 09:15:20;;;;;;;8.25;3.00;;;21.10;97.80;;;;;;5060532;28;20045;-85
2022/09/04 09:18:23;;;;;;;7.85;2.72;;;21.30;97.70;;;;;;5060287;28;20052;-85
2022/09/04 09:21:03;;;;;;;9.37;3.10;;;21.40;97.40;;;;;;5079226;28;20132;-85
2022/09/04 09:23:41;;;;;;;8.23;3.03;;;21.60;97.00;;;;;;5061097;28;20082;-85
2022/09/04 09:26:22;;;;;;;10.48;3.10;;;21.70;96.90;;;;;;5060815;28;20098;-85
2022/09/04 09:29:04;;;;;;;7.63;2.83;;;21.80;96.70;;;;;;5079256;28;20044;-85
2022/09/04 09:31:33;;;;;;;8.20;3.15;;;21.90;96.60;;;;;;5059976;28;20044;-85
2022/09/04 09:34:20;;;;;;;9.10;2.72;;;22.10;96.50;;;;;;5061600;28;20508;-85
2022/09/04 09:37:10;;;;;;;7.30;2.95;;;22.20;96.40;;;;;;5079263;28;20060;-85
2022/09/04 09:40:03;;;;;;;8.85;2.90;;;22.30;96.00;;;;;;5061121;28;20051;-87
2022/09/04 09:43:03;;;;;;;9.00;3.17;;;22.50;95.70;;;;;;5079743;28;20085;-87
2022/09/04 09:45:50;;;;;;;8.77;2.75;;;22.70;95.70;;;;;;5057454;28;20125;-87
2022/09/04 09:48:59;;;;;;;6.75;2.60;;;22.80;95.70;;;;;;5077295;23;20056;-87
2022/09/04 09:51:43;;;;;;;9.90;2.80;;;23.10;94.70;;;;;;5079012;28;20052;-87
2022/09/04 09:54:42;;;;;;;7.80;2.72;;;23.30;95.00;;;;;;5077433;28;20071;-88
2022/09/04 09:57:43;;;;;;;8.95;2.80;;;23.50;94.90;;;;;;5078100;28;20040;-88
2022/09/04 10:00:14;;;;;;;7.90;2.53;;;24.00;93.80;;;;;;5077216;28;20056;-87
2022/09/04 10:02:42;;;;;;;7.13;2.58;;;23.80;94.60;;;;;;5068377;28;20044;-87
2022/09/04 10:05:18;;;;;;;9.07;2.80;;;23.90;94.50;;;;;;5064224;28;20044;-86
2022/09/04 10:08:09;;;;;;;7.28;2.60;;;24.10;94.50;;;;;;5064123;28;20051;-87
2022/09/04 10:11:08;;;;;;;6.20;2.53;;;24.20;93.80;;;;;;5066468;28;20511;-87
2022/09/04 10:13:58;;;;;;;9.35;2.72;;;24.40;93.70;;;;;;5061753;28;20059;-89
2022/09/04 10:16:48;;;;;;;7.85;2.42;;;24.30;93.10;;;;;;5066136;28;20087;-88
2022/09/04 10:19:52;;;;;;;9.77;2.67;;;24.50;93.40;;;;;;5067972;28;20045;-87
2022/09/04 10:22:44;;;;;;;51.40;5.80;;;24.50;92.70;;;;;;5062505;28;20060;-87
2022/09/04 10:25:40;;;;;;;6.75;2.47;;;24.50;92.50;;;;;;5065887;28;20400;-87
2022/09/04 10:28:43;;;;;;;7.75;2.45;;;24.80;92.70;;;;;;5067699;28;20063;-87
2022/09/04 10:31:26;;;;;;;7.75;2.55;;;25.10;91.90;;;;;;5067358;28;20032;-86
2022/09/04 10:34:00;;;;;;;8.30;2.60;;;25.00;91.50;;;;;;5068483;28;20477;-88
2022/09/04 10:36:56;;;;;;;7.10;2.42;;;25.00;92.30;;;;;;5062170;28;20084;-87
2022/09/04 10:42:40;;;;;;;8.95;2.55;;;25.40;91.70;;;;;;5065241;28;20045;-89
2022/09/04 10:53:11;;;;;;;6.43;2.47;;;25.80;90.80;;;;;;5056433;28;20227;-89
2022/09/04 10:56:07;;;;;;;7.18;2.60;;;25.80;91.20;;;;;;5060050;28;20098;-90
2022/09/04 10:59:05;;;;;;;7.90;2.70;;;25.90;91.40;;;;;;5142321;22;20487;-90
2022/09/04 11:02:10;;;;;;;7.60;2.72;;;26.20;91.40;;;;;;5075071;28;20054;-88
2022/09/04 11:04:45;;;;;;;9.02;2.70;;;26.20;90.30;;;;;;5056674;28;20072;-88
2022/09/04 11:07:50;;;;;;;8.40;2.90;;;27.10;91.30;;;;;;5075267;28;20377;-89
2022/09/04 11:10:44;;;;;;;9.77;3.30;;;26.50;90.70;;;;;;5056682;28;20407;-88
2022/09/04 11:13:47;;;;;;;7.82;2.90;;;26.80;90.50;;;;;;5058159;28;20051;-92
2022/09/04 11:16:31;;;;;;;9.85;2.75;;;26.90;90.30;;;;;;5077865;28;20040;-82
2022/09/04 11:23:07;;;;;;;9.73;3.13;;;26.70;90.40;;;;;;5070022;28;20044;-90
2022/09/04 11:26:13;;;;;;;7.10;2.83;;;26.70;90.60;;;;;;5058372;28;20484;-90
2022/09/04 11:29:23;;;;;;;7.85;2.80;;;27.00;90.10;;;;;;5087675;28;20040;-89
2022/09/04 11:36:14;;;;;;;8.82;2.58;;;27.50;90.00;;;;;;5072199;28;20080;-90
2022/09/04 11:42:59;;;;;;;9.02;2.80;;;27.50;88.80;;;;;;5073434;22;20052;-92
2022/09/04 11:45:51;;;;;;;7.15;2.80;;;27.50;88.00;;;;;;5068610;28;20511;-90
2022/09/04 11:48:55;;;;;;;7.75;2.70;;;27.60;89.40;;;;;;4997687;22;20053;-91
2022/09/04 11:52:29;;;;;;;7.07;2.70;;;27.80;87.90;;;;;;5056466;28;20128;-90
2022/09/04 11:55:51;;;;;;;7.38;2.47;;;27.90;87.60;;;;;;5042652;28;20076;-91
2022/09/04 11:59:10;;;;;;;6.75;2.55;;;28.30;87.90;;;;;;5038449;28;20049;-91
2022/09/04 12:02:10;;;;;;;7.78;2.78;;;28.30;86.70;;;;;;5047733;28;20040;-91
2022/09/04 12:05:39;;;;;;;7.45;2.53;;;28.20;87.30;;;;;;5059352;28;20045;-90
2022/09/04 12:12:21;;;;;;;8.15;2.40;;;28.30;85.90;;;;;;5048253;28;20041;-90
2022/09/04 12:15:22;;;;;;;6.25;2.50;;;28.60;87.20;;;;;;5041127;28;20066;-90
2022/09/04 12:26:06;;;;;;;6.65;2.75;;;29.00;86.70;;;;;;5038685;28;20157;-90
2022/09/04 12:29:09;;;;;;;7.35;2.45;;;29.20;86.10;;;;;;5038754;28;20040;-91
2022/09/04 12:31:41;;;;;;;7.65;2.45;;;29.10;84.40;;;;;;5063605;28;20404;-92
2022/09/04 12:35:05;;;;;;;7.75;2.38;;;28.90;86.10;;;;;;5054180;28;20173;-89
2022/09/04 12:38:14;;;;;;;6.55;2.47;;;28.90;84.70;;;;;;4939663;29;20062;-90
2022/09/04 12:41:17;;;;;;;7.53;2.40;;;28.80;85.40;;;;;;4937306;29;20047;-89
2022/09/04 12:44:42;;;;;;;8.65;2.72;;;28.70;85.20;;;;;;4992513;28;20053;-90
2022/09/04 12:47:21;;;;;;;6.20;2.50;;;28.90;85.80;;;;;;5046880;28;20181;-90
2022/09/04 12:57:28;;;;;;;;;;;;;;;;;;;;;
2022/09/04 13:00:35;;;;;;;6.80;2.40;;;28.80;84.00;;;;;;5026393;28;20045;-87
2022/09/04 13:03:41;;;;;;;8.10;2.60;;;28.80;84.70;;;;;;5025578;22;20055;-88
2022/09/04 13:06:40;;;;;;;6.28;2.30;;;29.00;83.80;;;;;;5065543;28;20488;-93
2022/09/04 13:09:43;;;;;;;7.43;2.50;;;29.30;84.40;;;;;;5027310;28;20659;-89
2022/09/04 13:15:08;;;;;;;7.78;2.67;;;29.70;84.40;;;;;;5132678;22;20048;-89
2022/09/04 13:18:26;;;;;;;6.75;2.58;;;29.80;83.80;;;;;;5061632;28;20052;-89
2022/09/04 13:42:04;;;;;;;7.28;2.60;;;30.50;82.00;;;;;;5027469;28;20054;-88
2022/09/04 13:44:39;;;;;;;6.80;2.50;;;30.60;81.30;;;;;;5020899;28;20057;-87
2022/09/04 13:47:55;;;;;;;;;;;;;;;;;;;;;
2022/09/04 13:51:34;;;;;;;6.30;2.53;;;30.50;81.10;;;;;;5023325;28;20049;-87
2022/09/04 13:58:12;;;;;;;6.57;2.50;;;30.40;80.80;;;;;;4951331;28;20047;-88
2022/09/04 14:01:15;;;;;;;6.90;2.63;;;30.10;81.20;;;;;;4970087;23;20038;-89
2022/09/04 14:04:33;;;;;;;7.18;2.60;;;30.40;80.90;;;;;;5007835;28;20061;-88
2022/09/04 14:07:28;;;;;;;7.45;2.72;;;30.40;80.60;;;;;;5007007;28;20064;-88
2022/09/04 14:11:03;;;;;;;7.10;2.80;;;30.10;79.60;;;;;;5009045;28;20045;-89
2022/09/04 14:13:44;;;;;;;7.90;2.65;;;30.40;80.20;;;;;;5006967;28;20049;-90
2022/09/04 14:16:14;;;;;;;7.93;2.80;;;30.30;80.20;;;;;;5026011;28;20088;-89
2022/09/04 14:19:31;;;;;;;8.23;2.47;;;30.70;80.40;;;;;;5013442;28;20045;-90
2022/09/04 14:27:23;;;;;;;8.10;2.83;;;30.10;80.50;;;;;;5087233;22;20099;-93
2022/09/04 14:29:48;;;;;;;6.30;2.40;;;30.10;80.50;;;;;;5041823;28;20053;-90
2022/09/04 14:32:53;;;;;;;7.25;2.60;;;30.10;81.00;;;;;;5023807;28;20052;-92
2022/09/04 14:45:11;;;;;;;6.88;2.60;;;29.90;80.20;;;;;;5031393;22;20104;-91
2022/09/04 14:49:05;;;;;;;6.57;2.60;;;30.00;79.80;;;;;;5008220;28;20124;-95
2022/09/04 15:01:08;;;;;;;7.47;2.60;;;30.10;80.40;;;;;;5022027;28;20383;-93
2022/09/04 15:04:00;;;;;;;6.18;2.70;;;29.90;78.50;;;;;;5008582;28;20065;-92
2022/09/04 15:06:52;;;;;;;6.95;2.92;;;29.70;80.50;;;;;;5012294;28;20048;-94
2022/09/04 15:12:44;;;;;;;7.13;2.65;;;29.50;80.40;;;;;;5658456;22;20331;-91
2022/09/04 15:15:42;;;;;;;7.50;2.75;;;29.20;79.60;;;;;;5009439;28;20054;-92
2022/09/04 15:18:39;;;;;;;6.40;2.60;;;29.40;80.20;;;;;;5031810;28;20078;-89
2022/09/04 15:32:08;;;;;;;7.88;2.70;;;29.30;80.70;;;;;;5013769;28;20057;-88
2022/09/04 15:34:41;;;;;;;8.50;2.60;;;29.30;80.50;;;;;;5014457;28;20898;-91
2022/09/04 15:37:40;;;;;;;6.60;2.55;;;29.40;80.30;;;;;;4994607;28;20042;-90
2022/09/04 15:40:43;;;;;;;7.20;2.58;;;29.20;79.80;;;;;;4975711;28;20056;-89
2022/09/04 15:43:15;;;;;;;6.72;2.60;;;29.20;80.50;;;;;;4954112;28;20057;-87
2022/09/04 15:50:03;;;;;;;7.07;2.50;;;29.20;80.40;;;;;;5014286;28;20042;-88
2022/09/04 15:56:17;;;;;;;8.48;2.65;;;28.70;81.30;;;;;;5053619;28;20114;-83
2022/09/04 15:59:35;;;;;;;6.38;2.58;;;28.50;81.10;;;;;;5024841;22;20045;-91
2022/09/04 16:02:25;;;;;;;8.00;2.53;;;28.30;81.10;;;;;;5035624;28;20384;-94
2022/09/04 16:05:40;;;;;;;5.85;2.55;;;28.20;81.50;;;;;;5034069;28;20042;-91
2022/09/04 16:09:02;;;;;;;5.95;2.60;;;28.10;81.20;;;;;;5054752;22;20064;-91
2022/09/04 16:11:58;;;;;;;7.30;2.80;;;28.10;81.70;;;;;;4954088;28;20138;-91
2022/09/04 16:14:58;;;;;;;7.53;3.00;;;27.90;81.50;;;;;;4938109;29;20152;-91
2022/09/04 16:17:48;;;;;;;8.07;2.70;;;27.80;81.80;;;;;;5052910;22;20057;-90
2022/09/04 16:20:34;;;;;;;8.32;2.75;;;27.70;81.80;;;;;;5014635;28;20042;-91
2022/09/04 16:23:07;;;;;;;7.47;2.80;;;27.60;82.10;;;;;;5109437;22;20047;-90
2022/09/04 16:25:58;;;;;;;7.45;3.15;;;27.50;82.00;;;;;;5120932;28;20055;-90
2022/09/04 16:29:03;;;;;;;7.60;2.60;;;27.80;82.90;;;;;;5085850;28;20468;-86
2022/09/04 16:32:18;;;;;;;7.13;2.83;;;27.20;82.40;;;;;;5109520;28;20076;-87
2022/09/04 16:35:30;;;;;;;7.82;2.80;;;27.20;82.60;;;;;;5043611;28;20154;-87
2022/09/04 16:38:18;;;;;;;7.63;2.90;;;27.10;84.10;;;;;;5107732;28;20036;-88
2022/09/04 16:44:36;;;;;;;8.27;3.08;;;27.00;83.80;;;;;;5114201;28;20096;-87
2022/09/04 16:55:01;;;;;;;7.72;3.10;;;26.90;84.00;;;;;;5041741;22;20061;-88
2022/09/04 16:58:39;;;;;;;7.93;2.97;;;26.80;84.40;;;;;;5017823;28;20084;-87
2022/09/04 17:01:11;;;;;;;9.95;3.30;;;26.70;84.90;;;;;;5015593;28;20088;-87
2022/09/04 17:04:36;;;;;;;8.07;3.47;;;26.70;84.50;;;;;;5032548;28;20125;-88
2022/09/04 17:14:44;;;;;;;8.65;3.05;;;26.20;85.30;;;;;;5092363;28;20094;-87
2022/09/04 17:17:40;;;;;;;7.13;2.88;;;26.20;86.60;;;;;;5054691;28;20044;-88
2022/09/04 17:23:42;;;;;;;8.10;2.97;;;25.80;86.20;;;;;;5061065;28;20052;-88
2022/09/04 17:26:44;;;;;;;8.13;3.10;;;25.70;86.60;;;;;;5093069;28;20090;-88